createdAt,value
2019-04-11T00:04:06.610Z,61.33
2019-04-11T00:09:11.844Z,62.06
2019-04-11T00:14:15.915Z,62.84
2019-04-11T00:19:19.495Z,62.60
2019-04-11T00:24:22.990Z,63.72
2019-04-11T00:29:26.788Z,62.18
2019-04-11T00:34:31.069Z,63.35
2019-04-11T00:39:35.404Z,62.54
2019-04-11T00:44:39.001Z,64.23
2019-04-11T00:49:42.962Z,63.38
2019-04-11T00:54:46.986Z,63.84
2019-04-11T00:59:50.948Z,64.26
2019-04-11T01:04:54.471Z,64.60
2019-04-11T01:09:58.922Z,66.24
2019-04-11T01:15:03.175Z,65.45
2019-04-11T01:20:08.262Z,66.69
2019-04-11T01:25:13.228Z,67.20
2019-04-11T01:30:19.476Z,67.03
2019-04-11T01:35:23.512Z,66.08
2019-04-11T01:40:27.142Z,67.31
2019-04-11T01:45:31.662Z,66.96
2019-04-11T01:50:36.948Z,66.53
2019-04-11T01:55:40.861Z,66.85
2019-04-11T02:00:46.227Z,68.05
2019-04-11T02:05:49.822Z,68.16
2019-04-11T02:10:53.306Z,68.57
2019-04-11T02:15:58.350Z,67.77
2019-04-11T02:21:03.130Z,68.62
2019-04-11T02:26:09.904Z,69.14
2019-04-11T02:31:13.917Z,68.66
2019-04-11T02:36:18.803Z,69.22
2019-04-11T02:41:22.908Z,69.12
2019-04-11T02:46:35.246Z,69.59
2019-04-11T02:51:31.575Z,69.24
2019-04-11T02:56:36.378Z,69.45
2019-04-11T03:01:42.086Z,70.68
2019-04-11T03:06:47.962Z,70.36
2019-04-11T03:11:51.722Z,69.67
2019-04-11T03:17:04.161Z,70.70
2019-04-11T03:22:01.557Z,70.04
2019-04-11T03:27:07.868Z,70.87
2019-04-11T03:32:48.843Z,71.21
2019-04-11T03:37:48.024Z,71.03
2019-04-11T03:42:38.053Z,72.27
2019-04-11T03:47:37.572Z,73.46
2019-04-11T03:52:32.733Z,75.08
2019-04-11T03:57:37.370Z,73.67
2019-04-11T04:02:41.427Z,74.95
2019-04-11T04:07:46.506Z,74.22
2019-04-11T04:12:51.754Z,75.03
2019-04-11T04:18:15.053Z,76.38
2019-04-11T04:23:20.835Z,76.85
2019-04-11T04:28:24.596Z,75.70
2019-04-11T04:33:29.459Z,74.44
2019-04-11T04:38:33.879Z,75.19
2019-04-11T04:43:38.793Z,76.41
2019-04-11T04:48:43.385Z,77.02
2019-04-11T04:53:48.132Z,77.11
2019-04-11T04:58:51.744Z,77.80
2019-04-11T05:03:56.366Z,77.62
2019-04-11T05:09:00.350Z,78.45
2019-04-11T05:14:05.087Z,76.42
2019-04-11T05:19:08.697Z,75.94
2019-04-11T05:24:12.514Z,75.05
2019-04-11T05:29:16.035Z,73.52
2019-04-11T05:34:20.250Z,72.93
2019-04-11T05:39:23.846Z,72.62
2019-04-11T05:44:28.406Z,72.40
2019-04-11T05:49:37.309Z,71.64
2019-04-11T05:54:41.846Z,71.47
2019-04-11T05:59:52.081Z,70.86
2019-04-11T06:04:56.082Z,70.71
2019-04-11T06:10:12.880Z,70.30
2019-04-11T06:15:36.358Z,70.16
2019-04-11T06:20:43.051Z,70.16
2019-04-11T06:25:57.386Z,70.29
2019-04-11T06:31:20.208Z,70.67
2019-04-11T06:36:41.450Z,70.35
2019-04-11T06:42:04.212Z,68.95
2019-04-11T06:47:29.181Z,69.98
2019-04-11T06:52:34.877Z,70.10
2019-04-11T06:57:42.737Z,69.64
2019-04-11T07:02:48.671Z,69.45
2019-04-11T07:07:57.692Z,68.93
2019-04-11T07:13:12.086Z,68.52
2019-04-11T07:18:33.803Z,68.04
2019-04-11T07:23:55.548Z,68.51
2019-04-11T07:29:13.070Z,68.40
2019-04-11T07:34:24.245Z,68.81
2019-04-11T07:39:29.354Z,66.00
2019-04-11T07:44:34.437Z,65.32
2019-04-11T07:49:42.884Z,63.92
2019-04-11T07:54:47.657Z,62.63
2019-04-11T08:00:08.207Z,62.61
2019-04-11T08:05:23.386Z,60.32
2019-04-11T08:10:46.913Z,58.41
2019-04-11T08:15:52.010Z,57.13
2019-04-11T08:20:57.428Z,57.53
2019-04-11T08:26:19.842Z,55.26
2019-04-11T08:31:28.765Z,53.50
2019-04-11T08:36:50.497Z,53.44
2019-04-11T08:42:12.838Z,51.12
2019-04-11T08:47:18.235Z,51.68
2019-04-11T08:52:26.190Z,50.66
2019-04-11T08:57:41.543Z,48.58
2019-04-11T09:02:47.848Z,46.94
2019-04-11T09:08:00.182Z,44.51
2019-04-11T09:13:05.351Z,45.11
2019-04-11T09:18:11.847Z,44.61
2019-04-11T09:23:14.004Z,44.41
2019-04-11T09:28:19.655Z,43.73
2019-04-11T09:33:24.866Z,43.97
2019-04-11T09:38:32.817Z,40.92
2019-04-11T09:43:38.018Z,44.30
2019-04-11T09:48:46.374Z,44.59
2019-04-11T09:53:51.458Z,42.06
2019-04-11T09:58:58.243Z,42.53
2019-04-11T10:04:01.666Z,42.98
2019-04-11T10:09:07.929Z,42.18
2019-04-11T10:14:15.790Z,42.44
2019-04-11T10:19:24.347Z,43.80
2019-04-11T10:24:35.112Z,42.89
2019-04-11T10:29:56.765Z,43.97
2019-04-11T10:35:14.594Z,42.31
2019-04-11T10:40:36.398Z,43.83
2019-04-11T10:45:56.361Z,43.34
2019-04-11T10:51:13.088Z,43.45
2019-04-11T10:56:34.756Z,43.01
2019-04-11T11:01:40.157Z,44.10
2019-04-11T11:06:46.480Z,43.17
2019-04-11T11:11:54.879Z,41.82
2019-04-11T11:17:06.563Z,41.61
2019-04-11T11:22:18.788Z,41.84
2019-04-11T11:27:24.400Z,40.79
2019-04-11T11:32:27.886Z,41.90
2019-04-11T11:37:35.540Z,41.73
2019-04-11T11:42:40.604Z,38.49
2019-04-11T11:48:02.041Z,39.58
2019-04-11T11:53:25.800Z,40.51
2019-04-11T11:58:51.231Z,40.77
2019-04-11T12:04:00.250Z,41.23
2019-04-11T12:09:16.308Z,40.97
2019-04-11T12:14:22.218Z,42.21
2019-04-11T12:19:27.355Z,37.92
2019-04-11T12:24:38.679Z,37.30
2019-04-11T12:30:02.664Z,41.24
2019-04-11T12:35:24.702Z,41.71
2019-04-11T12:40:45.877Z,42.12
2019-04-11T12:45:50.928Z,41.02
2019-04-11T12:50:58.937Z,41.15
2019-04-11T12:56:12.458Z,40.49
2019-04-11T13:01:26.222Z,40.00
2019-04-11T13:06:49.085Z,40.10
2019-04-11T13:11:56.992Z,40.16
2019-04-11T13:17:07.779Z,39.31
2019-04-11T13:22:12.923Z,40.24
2019-04-11T13:27:18.009Z,40.46
2019-04-11T13:32:23.164Z,39.43
2019-04-11T13:37:44.260Z,41.42
2019-04-11T13:42:55.428Z,40.27
2019-04-11T13:48:03.046Z,41.08
2019-04-11T13:53:24.225Z,42.22
2019-04-11T13:58:32.347Z,41.24
2019-04-11T14:03:37.425Z,40.11
2019-04-11T14:08:59.258Z,39.59
2019-04-11T14:14:05.409Z,39.64
2019-04-11T14:19:19.862Z,40.47
2019-04-11T14:24:33.859Z,41.10
2019-04-11T14:29:44.571Z,42.15
2019-04-11T14:34:52.165Z,42.53
2019-04-11T14:40:00.051Z,41.65
2019-04-11T14:45:06.329Z,42.69
2019-04-11T14:50:12.075Z,42.93
2019-04-11T14:55:16.791Z,42.11
2019-04-11T15:00:29.412Z,41.63
2019-04-11T15:05:34.482Z,41.96
2019-04-11T15:16:06.575Z,40.76
2019-04-11T15:21:14.322Z,42.59
2019-04-11T15:26:28.136Z,41.78
2019-04-11T15:31:41.911Z,44.32
2019-04-11T15:36:46.996Z,42.02
2019-04-11T15:41:57.260Z,43.78
2019-04-11T15:47:00.621Z,42.57
2019-04-11T15:52:06.811Z,41.39
2019-04-11T15:57:12.743Z,43.80
2019-04-11T16:02:18.424Z,42.70
2019-04-11T16:07:26.560Z,42.76
2019-04-11T16:12:34.335Z,42.25
2019-04-11T16:17:39.378Z,40.75
2019-04-11T16:22:50.372Z,41.64
2019-04-11T16:28:11.984Z,42.17
2019-04-11T16:33:22.788Z,41.54
2019-04-11T16:38:44.391Z,41.32
2019-04-11T16:43:49.478Z,40.85
2019-04-11T16:48:55.609Z,41.89
2019-04-11T16:53:58.087Z,43.51
2019-04-11T16:59:01.495Z,43.54
2019-04-11T17:04:04.923Z,43.29
2019-04-11T17:09:27.660Z,43.42
2019-04-11T17:14:33.277Z,41.70
2019-04-11T17:19:36.888Z,42.02
2019-04-11T17:24:40.415Z,41.65
2019-04-11T17:29:43.838Z,43.15
2019-04-11T17:34:47.255Z,43.99
2019-04-11T17:39:50.661Z,44.21
2019-04-11T17:44:54.166Z,44.31
2019-04-11T17:50:04.181Z,44.12
2019-04-11T17:55:06.621Z,44.39
2019-04-11T18:00:11.998Z,45.85
2019-04-11T18:05:17.131Z,44.34
2019-04-11T18:10:20.780Z,43.87
2019-04-11T18:15:24.205Z,44.74
2019-04-11T18:20:27.636Z,43.62
2019-04-11T18:25:31.118Z,46.05
2019-04-11T18:30:34.595Z,46.07
2019-04-11T18:35:38.203Z,46.09
2019-04-11T18:40:41.601Z,45.19
2019-04-11T18:45:45.027Z,45.34
2019-04-11T18:50:50.771Z,45.42
2019-04-11T18:55:53.701Z,44.66
2019-04-11T19:00:57.236Z,45.55
2019-04-11T19:06:00.655Z,45.38
2019-04-11T19:11:04.359Z,44.92
2019-04-11T19:16:07.806Z,43.62
2019-04-11T19:21:11.228Z,44.20
2019-04-11T19:26:15.285Z,47.26
2019-04-11T19:31:18.812Z,44.49
2019-04-11T19:36:22.269Z,45.25
2019-04-11T19:41:25.768Z,43.83
2019-04-11T19:46:29.187Z,46.04
2019-04-11T19:51:32.619Z,45.40
2019-04-11T19:56:37.678Z,46.37
2019-04-11T20:01:41.092Z,46.69
2019-04-11T20:06:44.505Z,48.06
2019-04-11T20:11:48.016Z,46.94
2019-04-11T20:16:52.120Z,48.06
2019-04-11T20:21:55.717Z,49.11
2019-04-11T20:26:59.125Z,48.66
2019-04-11T20:32:02.816Z,49.66
2019-04-11T20:37:06.309Z,50.28
2019-04-11T20:42:09.803Z,50.07
2019-04-11T20:47:13.749Z,50.10
2019-04-11T20:52:17.280Z,49.93
2019-04-11T20:57:25.957Z,50.58
2019-04-11T21:02:28.369Z,51.29
2019-04-11T21:07:31.979Z,50.45
2019-04-11T21:12:37.299Z,49.38
2019-04-11T21:17:41.346Z,50.07
2019-04-11T21:22:44.813Z,49.72
2019-04-11T21:27:48.376Z,50.33
2019-04-11T21:32:51.781Z,50.44
2019-04-11T21:37:57.915Z,50.70
2019-04-11T21:43:01.024Z,50.28
2019-04-11T21:48:05.689Z,51.13
2019-04-11T21:53:13.852Z,50.61
2019-04-11T21:58:19.228Z,50.93
2019-04-11T22:03:23.997Z,50.75
2019-04-11T22:08:25.641Z,50.61
2019-04-11T22:13:29.049Z,50.69
2019-04-11T22:18:32.542Z,51.29
2019-04-11T22:23:48.115Z,50.85
2019-04-11T22:28:41.142Z,52.26
2019-04-11T22:33:46.271Z,53.39
2019-04-11T22:38:49.774Z,52.41
2019-04-11T22:43:53.203Z,51.53
2019-04-11T22:48:56.603Z,51.58
2019-04-11T22:54:00.716Z,50.46
2019-04-11T22:59:04.126Z,51.44
2019-04-11T23:04:07.657Z,50.85
2019-04-11T23:09:11.137Z,54.17
2019-04-11T23:14:15.910Z,50.34
2019-04-11T23:19:20.129Z,53.21
2019-04-11T23:24:23.546Z,51.97
2019-04-11T23:29:26.991Z,52.14
2019-04-11T23:34:30.389Z,50.59
2019-04-11T23:39:33.819Z,53.00
2019-04-11T23:44:37.243Z,52.14
2019-04-11T23:49:40.683Z,52.48
2019-04-11T23:54:44.559Z,52.01
2019-04-11T23:59:47.974Z,52.24
